Time;durP1;ratioP1;P1;durP2;ratioP2;P2;SDS_P1;SDS_P2;PMS_P1;PMS_P2;Temp;Humidity;BMP_temperature;BMP_pressure;BME280_temperature;BME280_humidity;BME280_pressure;Samples;Min_cycle;Max_cycle;Signal;HPM_P1;HPM_P2
2022/12/22 03:26:14;;;;;;;24.83;22.27;;;;;;;;;;6268056;22;20439;-68
2022/12/22 03:28:39;;;;;;;23.63;21.23;;;;;;;;;;6268472;22;20794;-68
2022/12/22 03:31:05;;;;;;;24.43;21.97;;;;;;;;;;6270106;22;20150;-68
2022/12/22 03:33:30;;;;;;;25.00;22.60;;;;;;;;;;6271976;22;20220;-68
2022/12/22 03:35:56;;;;;;;25.73;23.03;;;;;;;;;;6271197;22;20163;-68
2022/12/22 03:38:21;;;;;;;27.03;24.23;;;;;;;;;;6271156;22;20477;-68
2022/12/22 03:40:47;;;;;;;25.10;22.60;;;;;;;;;;6271438;22;20147;-68
2022/12/22 03:48:42;;;;;;;27.13;24.43;;;;;;;;;;6271417;22;20811;-68
2022/12/22 03:51:07;;;;;;;24.27;21.67;;;;;;;;;;6243730;22;20376;-68
2022/12/22 03:53:33;;;;;;;26.33;23.07;;;;;;;;;;6271626;22;20253;-68
2022/12/22 03:55:58;;;;;;;24.60;22.10;;;;;;;;;;6271091;22;20170;-68
2022/12/22 03:58:23;;;;;;;24.63;22.13;;;;;;;;;;6271052;22;20151;-68
2022/12/22 04:00:49;;;;;;;25.77;23.07;;;;;;;;;;6268042;22;20146;-68
2022/12/22 04:03:14;;;;;;;25.60;22.87;;;;;;;;;;6271922;22;20143;-68
2022/12/22 04:05:39;;;;;;;26.10;23.40;;;;;;;;;;6267995;22;20638;-69
2022/12/22 04:08:05;;;;;;;28.17;25.10;;;;;;;;;;6270946;22;20147;-68
2022/12/22 04:13:14;;;;;;;26.13;23.33;;;;;;;;;;6269435;22;20681;-68
2022/12/22 04:15:39;;;;;;;25.13;22.30;;;;;;;;;;6271523;22;20381;-69
2022/12/22 04:18:04;;;;;;;28.40;23.60;;;;;;;;;;6244020;22;20150;-68
2022/12/22 04:20:30;;;;;;;28.67;25.67;;;;;;;;;;6270646;22;20811;-68
2022/12/22 04:22:55;;;;;;;26.63;23.83;;;;;;;;;;6271084;22;20158;-68
2022/12/22 04:25:21;;;;;;;27.60;24.50;;;;;;;;;;6269738;22;20212;-68
2022/12/22 04:27:46;;;;;;;27.00;24.07;;;;;;;;;;6270496;22;20687;-68
2022/12/22 04:30:12;;;;;;;25.60;22.90;;;;;;;;;;6271193;22;20196;-68
2022/12/22 04:32:37;;;;;;;25.70;23.20;;;;;;;;;;6270272;22;20166;-68
2022/12/22 04:35:03;;;;;;;28.20;25.10;;;;;;;;;;6243871;22;20178;-68
2022/12/22 04:37:28;;;;;;;24.27;21.77;;;;;;;;;;6270619;22;20166;-68
2022/12/22 04:39:53;;;;;;;25.23;22.60;;;;;;;;;;6244671;22;20157;-68
2022/12/22 04:42:18;;;;;;;26.60;23.13;;;;;;;;;;6270574;22;20150;-68
2022/12/22 04:44:44;;;;;;;29.43;25.53;;;;;;;;;;6270104;22;20549;-68
2022/12/22 04:47:09;;;;;;;33.23;25.07;;;;;;;;;;6271670;22;20229;-68
2022/12/22 04:49:34;;;;;;;31.60;25.83;;;;;;;;;;6270358;22;20530;-68
2022/12/22 04:51:59;;;;;;;27.53;23.83;;;;;;;;;;6271528;22;20249;-68
2022/12/22 04:54:25;;;;;;;27.33;24.10;;;;;;;;;;6270898;22;20163;-68
2022/12/22 04:56:50;;;;;;;29.93;26.40;;;;;;;;;;6271019;22;20207;-68
2022/12/22 04:59:15;;;;;;;29.97;25.57;;;;;;;;;;6271153;22;20553;-68
2022/12/22 05:01:40;;;;;;;29.43;25.50;;;;;;;;;;6242691;22;20161;-68
2022/12/22 05:04:06;;;;;;;28.37;24.40;;;;;;;;;;6270952;22;20166;-68
2022/12/22 05:06:31;;;;;;;33.00;25.63;;;;;;;;;;6272182;22;20561;-68
2022/12/22 05:08:56;;;;;;;28.93;24.47;;;;;;;;;;6270593;22;20154;-68
2022/12/22 05:11:21;;;;;;;28.97;24.50;;;;;;;;;;6266887;22;20150;-68
2022/12/22 05:13:47;;;;;;;31.50;25.87;;;;;;;;;;6270637;22;20138;-68
2022/12/22 05:16:13;;;;;;;29.20;24.87;;;;;;;;;;6269008;22;20143;-68
2022/12/22 05:18:39;;;;;;;28.73;24.90;;;;;;;;;;6270396;22;20147;-68
2022/12/22 05:21:06;;;;;;;28.33;25.27;;;;;;;;;;6243509;22;20840;-68
2022/12/22 05:23:31;;;;;;;30.90;24.13;;;;;;;;;;6270645;22;20369;-68
2022/12/22 05:25:56;;;;;;;29.03;22.97;;;;;;;;;;6268987;22;20392;-68
2022/12/22 05:28:22;;;;;;;28.70;24.27;;;;;;;;;;6242429;22;20555;-68
2022/12/22 05:30:47;;;;;;;26.70;23.70;;;;;;;;;;6270812;22;20157;-68
2022/12/22 05:33:12;;;;;;;29.33;24.90;;;;;;;;;;6270511;22;20166;-68
2022/12/22 05:35:37;;;;;;;26.63;23.73;;;;;;;;;;6270517;22;20215;-69
2022/12/22 05:38:03;;;;;;;27.70;24.00;;;;;;;;;;6270780;22;20153;-68
2022/12/22 05:40:28;;;;;;;29.13;25.03;;;;;;;;;;6271604;22;20150;-68
2022/12/22 05:42:53;;;;;;;29.83;26.57;;;;;;;;;;6270515;22;20182;-68
2022/12/22 05:45:19;;;;;;;36.07;26.70;;;;;;;;;;6270484;22;20167;-68
2022/12/22 05:47:46;;;;;;;34.30;26.70;;;;;;;;;;6270569;22;20212;-68
2022/12/22 05:50:12;;;;;;;32.13;27.30;;;;;;;;;;6270474;22;20373;-69
2022/12/22 05:52:37;;;;;;;39.87;29.20;;;;;;;;;;6268730;22;20408;-68
2022/12/22 05:55:03;;;;;;;35.20;28.07;;;;;;;;;;6271483;22;20420;-69
2022/12/22 05:57:28;;;;;;;31.07;26.20;;;;;;;;;;6271050;22;20151;-69
2022/12/22 05:59:53;;;;;;;32.70;27.10;;;;;;;;;;6270806;22;20143;-68
2022/12/22 06:02:19;;;;;;;36.43;29.37;;;;;;;;;;6270189;22;20162;-69
2022/12/22 06:04:44;;;;;;;40.60;30.17;;;;;;;;;;6270527;22;20257;-68
2022/12/22 06:07:10;;;;;;;42.73;29.97;;;;;;;;;;6269883;22;20174;-69
2022/12/22 06:09:35;;;;;;;38.43;28.07;;;;;;;;;;6271344;22;20196;-68
2022/12/22 06:12:01;;;;;;;40.90;29.63;;;;;;;;;;6267752;22;20166;-69
2022/12/22 06:14:26;;;;;;;34.83;27.67;;;;;;;;;;6269788;22;20478;-70
2022/12/22 06:16:51;;;;;;;34.63;25.90;;;;;;;;;;6268397;22;20209;-71
2022/12/22 06:19:17;;;;;;;32.60;25.70;;;;;;;;;;6270579;22;20181;-70
2022/12/22 06:21:42;;;;;;;31.63;24.20;;;;;;;;;;6267231;22;20585;-70
2022/12/22 06:24:07;;;;;;;32.03;25.10;;;;;;;;;;6243406;22;20178;-68
2022/12/22 06:26:32;;;;;;;32.27;24.40;;;;;;;;;;6270900;22;20154;-68
2022/12/22 06:28:58;;;;;;;27.60;21.90;;;;;;;;;;6268861;22;20138;-68
2022/12/22 06:31:23;;;;;;;30.77;23.43;;;;;;;;;;6269314;22;20229;-70
2022/12/22 06:33:48;;;;;;;28.20;22.57;;;;;;;;;;6270659;22;20139;-68
2022/12/22 06:36:15;;;;;;;31.43;24.00;;;;;;;;;;6270461;22;20636;-67
2022/12/22 06:38:40;;;;;;;26.90;21.83;;;;;;;;;;6269562;22;20472;-67
2022/12/22 06:41:06;;;;;;;29.43;22.73;;;;;;;;;;6270185;22;20631;-67
2022/12/22 06:43:31;;;;;;;26.53;21.87;;;;;;;;;;6242759;22;20177;-67
2022/12/22 06:45:56;;;;;;;28.23;21.13;;;;;;;;;;6271593;22;20356;-67
2022/12/22 06:48:21;;;;;;;25.10;20.73;;;;;;;;;;6270560;22;20343;-67
2022/12/22 06:50:47;;;;;;;24.47;19.57;;;;;;;;;;6242774;22;20161;-67
2022/12/22 06:53:12;;;;;;;21.63;18.00;;;;;;;;;;6270734;22;20170;-67
2022/12/22 06:55:38;;;;;;;23.83;20.00;;;;;;;;;;6269639;22;20204;-67
2022/12/22 06:58:04;;;;;;;26.20;21.20;;;;;;;;;;6270689;22;20225;-67
2022/12/22 07:00:29;;;;;;;24.70;19.17;;;;;;;;;;6269307;22;20146;-67
2022/12/22 07:02:54;;;;;;;21.33;17.70;;;;;;;;;;6269549;22;20147;-67
2022/12/22 07:05:20;;;;;;;24.13;19.00;;;;;;;;;;6269820;22;20189;-67
2022/12/22 07:07:45;;;;;;;22.60;19.07;;;;;;;;;;6244510;22;20774;-67
2022/12/22 07:10:10;;;;;;;22.23;18.10;;;;;;;;;;6271724;22;20182;-68
2022/12/22 07:12:36;;;;;;;24.80;18.50;;;;;;;;;;6273042;22;20170;-68
2022/12/22 07:15:01;;;;;;;24.60;19.80;;;;;;;;;;6270833;22;20627;-67
2022/12/22 07:17:26;;;;;;;26.20;18.97;;;;;;;;;;6272041;22;20151;-67
2022/12/22 07:19:52;;;;;;;24.03;19.50;;;;;;;;;;6271417;22;20484;-70
2022/12/22 07:22:17;;;;;;;26.17;20.83;;;;;;;;;;6272297;22;20166;-70
2022/12/22 07:24:42;;;;;;;26.17;20.83;;;;;;;;;;6272336;22;20162;-69
2022/12/22 07:27:07;;;;;;;27.20;21.10;;;;;;;;;;6271811;22;20201;-70
2022/12/22 07:29:35;;;;;;;23.07;18.80;;;;;;;;;;6272121;22;20158;-70
2022/12/22 07:32:00;;;;;;;20.90;17.80;;;;;;;;;;6269656;22;20246;-70
2022/12/22 07:34:25;;;;;;;22.50;17.00;;;;;;;;;;6271725;22;20428;-70
2022/12/22 07:36:50;;;;;;;23.73;17.10;;;;;;;;;;6270314;22;20464;-70
2022/12/22 07:39:16;;;;;;;17.63;15.73;;;;;;;;;;6271707;22;20153;-70
2022/12/22 07:44:25;;;;;;;11.70;9.63;;;;;;;;;;6271169;22;20204;-70
2022/12/22 07:46:50;;;;;;;14.07;11.10;;;;;;;;;;6271538;22;20365;-68
2022/12/22 07:51:59;;;;;;;14.27;11.67;;;;;;;;;;6270462;22;20670;-68
2022/12/22 07:54:26;;;;;;;13.13;11.30;;;;;;;;;;6272265;22;20412;-69
2022/12/22 07:56:51;;;;;;;11.40;9.63;;;;;;;;;;6272885;22;20582;-68
2022/12/22 07:59:17;;;;;;;8.90;7.80;;;;;;;;;;6272098;22;20364;-68
2022/12/22 08:01:44;;;;;;;10.10;8.67;;;;;;;;;;6219549;22;20166;-68
2022/12/22 08:04:09;;;;;;;10.60;9.23;;;;;;;;;;6271184;22;20166;-68
2022/12/22 08:06:35;;;;;;;19.37;12.30;;;;;;;;;;6271005;22;20411;-68
2022/12/22 08:09:01;;;;;;;20.43;15.40;;;;;;;;;;6268586;22;20182;-68
2022/12/22 08:11:26;;;;;;;26.83;15.40;;;;;;;;;;6268205;22;20154;-69
2022/12/22 08:13:52;;;;;;;30.37;16.93;;;;;;;;;;6241726;22;20385;-68
2022/12/22 08:16:19;;;;;;;25.40;16.83;;;;;;;;;;6265749;22;20502;-69
2022/12/22 08:18:44;;;;;;;23.30;16.00;;;;;;;;;;6269875;22;20143;-69
2022/12/22 08:21:09;;;;;;;23.07;15.87;;;;;;;;;;6272027;22;20364;-69
2022/12/22 08:23:35;;;;;;;26.70;17.23;;;;;;;;;;6245687;22;20159;-69
2022/12/22 08:26:06;;;;;;;28.77;16.53;;;;;;;;;;6271702;22;20166;-69
2022/12/22 08:28:33;;;;;;;23.03;15.80;;;;;;;;;;6271678;22;20214;-69
2022/12/22 08:30:59;;;;;;;24.40;16.27;;;;;;;;;;6269010;22;20372;-69
2022/12/22 08:33:24;;;;;;;26.53;16.37;;;;;;;;;;6272525;22;20427;-69
2022/12/22 08:35:50;;;;;;;29.40;17.97;;;;;;;;;;6273148;22;20826;-69
2022/12/22 08:38:15;;;;;;;27.43;16.93;;;;;;;;;;6269722;22;20134;-69
2022/12/22 08:40:41;;;;;;;33.93;19.20;;;;;;;;;;6269780;22;20237;-69
2022/12/22 08:43:08;;;;;;;26.03;17.27;;;;;;;;;;6270378;22;20153;-68
2022/12/22 08:45:33;;;;;;;29.47;18.37;;;;;;;;;;6269348;22;20389;-69
2022/12/22 08:47:58;;;;;;;29.53;17.03;;;;;;;;;;6238819;22;20385;-69
2022/12/22 08:50:23;;;;;;;25.50;15.50;;;;;;;;;;6270910;22;20155;-69
2022/12/22 08:52:49;;;;;;;28.53;17.97;;;;;;;;;;6243760;22;20252;-68
2022/12/22 08:55:14;;;;;;;32.10;17.90;;;;;;;;;;6270378;22;20253;-68
2022/12/22 08:57:39;;;;;;;34.70;17.47;;;;;;;;;;6271096;22;20512;-68
2022/12/22 09:00:07;;;;;;;22.73;16.23;;;;;;;;;;6265167;22;20146;-69
2022/12/22 09:02:32;;;;;;;24.33;16.20;;;;;;;;;;6244928;22;20457;-69
2022/12/22 09:04:58;;;;;;;34.53;16.43;;;;;;;;;;6266650;22;20412;-69
2022/12/22 09:07:23;;;;;;;21.27;14.73;;;;;;;;;;6271403;22;20596;-69
2022/12/22 09:09:48;;;;;;;23.03;14.37;;;;;;;;;;6270768;22;20150;-68
2022/12/22 09:12:14;;;;;;;21.43;14.70;;;;;;;;;;6238087;22;20189;-70
2022/12/22 09:14:39;;;;;;;19.97;13.60;;;;;;;;;;6268212;22;20194;-70
2022/12/22 09:17:04;;;;;;;25.53;13.80;;;;;;;;;;6267068;22;20439;-70
2022/12/22 09:19:29;;;;;;;20.40;11.97;;;;;;;;;;6268543;22;20150;-69
2022/12/22 09:21:55;;;;;;;20.03;12.20;;;;;;;;;;6265399;22;20585;-70
2022/12/22 09:24:20;;;;;;;18.10;12.60;;;;;;;;;;6266853;22;20174;-70
2022/12/22 09:26:45;;;;;;;17.73;11.10;;;;;;;;;;6265002;22;20516;-70
2022/12/22 09:29:14;;;;;;;19.83;13.07;;;;;;;;;;6268261;22;20155;-70
2022/12/22 09:31:40;;;;;;;18.03;12.07;;;;;;;;;;6268996;22;20146;-70
2022/12/22 09:34:06;;;;;;;15.90;11.60;;;;;;;;;;6267628;22;20732;-70
2022/12/22 09:36:32;;;;;;;15.33;10.33;;;;;;;;;;6264571;22;20361;-71
2022/12/22 09:38:58;;;;;;;20.40;13.63;;;;;;;;;;6269946;22;20150;-70
2022/12/22 09:41:30;;;;;;;19.17;11.30;;;;;;;;;;6242268;22;20903;-69
2022/12/22 09:43:56;;;;;;;17.57;11.57;;;;;;;;;;6241812;22;20159;-69
2022/12/22 09:46:23;;;;;;;20.70;12.10;;;;;;;;;;6266123;22;20365;-69
2022/12/22 09:48:48;;;;;;;20.13;13.93;;;;;;;;;;6267600;22;20134;-69
2022/12/22 09:51:14;;;;;;;17.50;12.33;;;;;;;;;;6267604;22;20475;-69
2022/12/22 09:53:40;;;;;;;22.03;12.30;;;;;;;;;;6270006;22;20174;-69
2022/12/22 09:56:05;;;;;;;20.63;12.73;;;;;;;;;;6268875;22;20169;-70
2022/12/22 09:58:33;;;;;;;29.40;13.07;;;;;;;;;;6268411;22;20142;-68
2022/12/22 10:01:04;;;;;;;20.00;13.17;;;;;;;;;;6242130;22;20493;-70
2022/12/22 10:03:42;;;;;;;22.97;13.70;;;;;;;;;;6268997;22;20377;-70
2022/12/22 10:06:10;;;;;;;24.17;14.47;;;;;;;;;;6263559;22;20389;-69
2022/12/22 10:08:36;;;;;;;27.40;14.60;;;;;;;;;;6270767;22;20903;-69
2022/12/22 10:11:02;;;;;;;23.30;15.23;;;;;;;;;;6238571;22;20412;-70
2022/12/22 10:13:27;;;;;;;25.97;15.90;;;;;;;;;;6267349;22;20166;-69
2022/12/22 10:15:52;;;;;;;28.60;15.60;;;;;;;;;;6266718;22;20159;-70
2022/12/22 10:18:19;;;;;;;23.80;14.80;;;;;;;;;;6265152;22;20242;-69
2022/12/22 10:20:46;;;;;;;25.50;14.83;;;;;;;;;;6270428;22;20189;-70
2022/12/22 10:23:14;;;;;;;25.10;14.67;;;;;;;;;;6262330;22;20456;-71
2022/12/22 10:25:41;;;;;;;29.20;14.60;;;;;;;;;;6269294;22;20385;-69
2022/12/22 10:28:12;;;;;;;25.43;12.80;;;;;;;;;;6270009;22;20365;-69
2022/12/22 10:30:39;;;;;;;23.23;12.07;;;;;;;;;;6270139;22;20867;-70
2022/12/22 10:33:04;;;;;;;24.23;13.10;;;;;;;;;;6269249;22;20510;-70
2022/12/22 10:35:48;;;;;;;21.70;12.10;;;;;;;;;;6242725;22;20887;-71
2022/12/22 10:38:22;;;;;;;20.00;12.73;;;;;;;;;;6266087;22;20485;-70
2022/12/22 10:40:48;;;;;;;22.77;12.33;;;;;;;;;;6242254;22;20702;-71
2022/12/22 10:43:21;;;;;;;26.47;14.07;;;;;;;;;;6268288;22;20366;-70
2022/12/22 10:45:47;;;;;;;29.83;15.27;;;;;;;;;;6268303;22;20389;-70
2022/12/22 10:48:12;;;;;;;22.80;13.67;;;;;;;;;;6269651;22;20383;-70
2022/12/22 10:50:43;;;;;;;22.47;12.97;;;;;;;;;;6267167;22;20146;-70
2022/12/22 10:53:08;;;;;;;21.13;12.50;;;;;;;;;;6271218;22;20162;-70
2022/12/22 10:55:34;;;;;;;27.90;15.17;;;;;;;;;;6268766;22;20392;-71
2022/12/22 10:58:09;;;;;;;27.57;14.93;;;;;;;;;;6269478;22;20138;-71
2022/12/22 11:00:35;;;;;;;34.13;16.30;;;;;;;;;;6269109;22;20426;-71
2022/12/22 11:03:01;;;;;;;26.50;15.77;;;;;;;;;;6268112;22;20632;-71
2022/12/22 11:05:27;;;;;;;30.23;18.60;;;;;;;;;;6266977;22;20416;-71
2022/12/22 11:07:53;;;;;;;23.87;15.80;;;;;;;;;;6268193;22;20366;-70
2022/12/22 11:10:39;;;;;;;24.57;14.90;;;;;;;;;;6269205;22;20432;-70
2022/12/22 11:13:11;;;;;;;23.00;13.57;;;;;;;;;;6268333;22;20613;-70
2022/12/22 11:15:36;;;;;;;28.07;13.83;;;;;;;;;;6261666;22;20389;-69
2022/12/22 11:18:10;;;;;;;22.03;12.53;;;;;;;;;;6266362;22;20730;-71
2022/12/22 11:20:48;;;;;;;20.87;12.10;;;;;;;;;;6269291;22;20146;-70
2022/12/22 11:23:39;;;;;;;17.10;10.50;;;;;;;;;;6270185;22;20415;-70
2022/12/22 11:26:10;;;;;;;16.17;9.33;;;;;;;;;;6212301;22;20393;-70
2022/12/22 11:28:42;;;;;;;17.93;9.90;;;;;;;;;;6267929;22;20452;-70
2022/12/22 11:31:14;;;;;;;21.40;9.93;;;;;;;;;;6270763;22;20742;-70
2022/12/22 11:33:39;;;;;;;15.50;8.30;;;;;;;;;;6269201;22;20419;-70
2022/12/22 11:36:08;;;;;;;11.57;7.60;;;;;;;;;;6271223;22;20784;-70
2022/12/22 11:38:54;;;;;;;17.57;8.63;;;;;;;;;;6270723;22;20523;-70
2022/12/22 11:41:38;;;;;;;14.63;8.27;;;;;;;;;;6268400;22;20454;-67
2022/12/22 11:44:21;;;;;;;15.80;6.93;;;;;;;;;;6270888;22;20385;-68
2022/12/22 11:47:05;;;;;;;17.03;8.47;;;;;;;;;;6268577;22;20456;-68
2022/12/22 11:49:37;;;;;;;13.83;7.80;;;;;;;;;;6268256;22;20361;-69
2022/12/22 11:52:12;;;;;;;17.17;6.80;;;;;;;;;;6269384;22;20980;-68
2022/12/22 11:55:02;;;;;;;11.10;6.63;;;;;;;;;;6272301;22;20407;-68
2022/12/22 11:57:27;;;;;;;13.70;7.00;;;;;;;;;;6271088;22;20352;-71
2022/12/22 12:00:10;;;;;;;10.40;6.20;;;;;;;;;;6273021;22;20361;-71
2022/12/22 12:02:54;;;;;;;10.13;6.93;;;;;;;;;;6272073;22;20241;-70
2022/12/22 12:05:51;;;;;;;12.60;6.10;;;;;;;;;;6271470;22;20512;-68
2022/12/22 12:08:16;;;;;;;9.43;5.13;;;;;;;;;;6187182;22;20743;-70
2022/12/22 12:10:47;;;;;;;13.67;6.30;;;;;;;;;;6270337;22;20423;-68
2022/12/22 12:13:12;;;;;;;12.23;6.00;;;;;;;;;;6272749;22;20170;-68
2022/12/22 12:15:42;;;;;;;13.37;5.43;;;;;;;;;;6271712;22;20385;-68
2022/12/22 12:18:18;;;;;;;11.17;5.60;;;;;;;;;;6268976;22;20131;-67
2022/12/22 12:20:53;;;;;;;9.63;5.90;;;;;;;;;;6271157;22;20372;-69
2022/12/22 12:23:38;;;;;;;11.37;6.20;;;;;;;;;;6266172;22;20639;-68
2022/12/22 12:26:15;;;;;;;8.40;5.50;;;;;;;;;;6267794;22;20401;-67
2022/12/22 12:29:16;;;;;;;9.53;5.33;;;;;;;;;;6267298;22;20385;-68
2022/12/22 12:31:45;;;;;;;12.43;5.67;;;;;;;;;;6115268;23;20686;-68
2022/12/22 12:34:13;;;;;;;8.50;5.40;;;;;;;;;;6240996;22;20393;-68
2022/12/22 12:36:42;;;;;;;11.40;5.80;;;;;;;;;;6241483;22;20369;-67
2022/12/22 12:39:24;;;;;;;14.80;5.63;;;;;;;;;;6270811;22;20368;-68
2022/12/22 12:41:56;;;;;;;13.30;6.40;;;;;;;;;;6268658;22;20380;-68
2022/12/22 12:44:24;;;;;;;12.70;5.00;;;;;;;;;;6268532;22;20455;-68
2022/12/22 12:46:49;;;;;;;18.70;5.50;;;;;;;;;;6243450;22;20438;-68
2022/12/22 12:49:34;;;;;;;9.20;4.60;;;;;;;;;;6269228;22;20373;-68
2022/12/22 12:52:03;;;;;;;13.20;4.90;;;;;;;;;;6244810;22;20629;-69
2022/12/22 12:54:28;;;;;;;8.80;4.90;;;;;;;;;;6271289;22;20473;-69
2022/12/22 12:57:05;;;;;;;9.03;4.40;;;;;;;;;;6271239;22;20458;-68
2022/12/22 12:59:39;;;;;;;10.50;4.50;;;;;;;;;;6271170;22;20173;-68
2022/12/22 13:02:23;;;;;;;13.10;6.37;;;;;;;;;;6242197;22;20461;-69
2022/12/22 13:05:13;;;;;;;10.10;4.77;;;;;;;;;;6271656;22;20913;-69
2022/12/22 13:07:57;;;;;;;15.07;4.10;;;;;;;;;;6269757;22;20375;-69
2022/12/22 13:10:24;;;;;;;10.57;4.67;;;;;;;;;;6268673;22;20369;-69
2022/12/22 13:12:50;;;;;;;13.70;5.90;;;;;;;;;;6266752;22;20443;-69
2022/12/22 13:15:45;;;;;;;9.17;4.00;;;;;;;;;;6266175;22;20443;-69
2022/12/22 13:18:27;;;;;;;11.80;5.33;;;;;;;;;;6234218;22;20377;-68
2022/12/22 13:20:58;;;;;;;10.80;5.20;;;;;;;;;;6236756;22;20369;-70
2022/12/22 13:23:27;;;;;;;7.77;4.13;;;;;;;;;;6269495;22;20373;-69
2022/12/22 13:25:57;;;;;;;11.13;4.57;;;;;;;;;;6268133;22;20392;-69
2022/12/22 13:28:23;;;;;;;10.70;4.87;;;;;;;;;;6242050;22;20455;-69
2022/12/22 13:30:51;;;;;;;15.53;5.20;;;;;;;;;;6267044;22;20376;-69
2022/12/22 13:33:19;;;;;;;15.53;6.40;;;;;;;;;;6267919;22;20899;-69
2022/12/22 13:35:46;;;;;;;10.50;4.87;;;;;;;;;;6272175;22;20385;-69
2022/12/22 13:38:31;;;;;;;14.50;5.57;;;;;;;;;;6268086;22;20385;-71
2022/12/22 13:40:57;;;;;;;10.10;4.23;;;;;;;;;;6270210;22;20361;-69
2022/12/22 13:43:23;;;;;;;11.57;4.47;;;;;;;;;;6241234;22;20477;-72
2022/12/22 13:45:53;;;;;;;8.63;4.60;;;;;;;;;;6266913;22;20804;-69
2022/12/22 13:48:38;;;;;;;9.17;4.10;;;;;;;;;;6263385;22;20150;-71
2022/12/22 13:51:06;;;;;;;11.63;4.90;;;;;;;;;;6259272;22;20523;-67
2022/12/22 13:53:37;;;;;;;9.03;4.10;;;;;;;;;;6264378;22;20440;-70
2022/12/22 13:56:13;;;;;;;12.43;4.20;;;;;;;;;;6268320;22;20388;-71
2022/12/22 13:58:45;;;;;;;11.90;4.37;;;;;;;;;;6262303;22;20854;-71
2022/12/22 14:01:10;;;;;;;14.40;5.30;;;;;;;;;;6269543;22;20346;-69
2022/12/22 14:03:45;;;;;;;14.50;4.50;;;;;;;;;;6241856;22;20420;-70
2022/12/22 14:06:28;;;;;;;10.10;4.37;;;;;;;;;;6269495;22;20508;-71
2022/12/22 14:09:08;;;;;;;13.10;4.10;;;;;;;;;;6243778;22;20887;-69
2022/12/22 14:11:33;;;;;;;9.73;3.53;;;;;;;;;;6271493;22;20388;-69
2022/12/22 14:13:58;;;;;;;11.10;3.87;;;;;;;;;;6261347;22;20377;-71
2022/12/22 14:16:23;;;;;;;9.93;3.43;;;;;;;;;;6265144;22;20202;-70
2022/12/22 14:18:51;;;;;;;9.57;3.07;;;;;;;;;;6264881;22;20151;-69
2022/12/22 14:21:17;;;;;;;17.00;4.10;;;;;;;;;;6268104;22;20174;-69
2022/12/22 14:23:42;;;;;;;10.50;3.20;;;;;;;;;;6240625;22;20373;-70
2022/12/22 14:26:12;;;;;;;10.27;3.40;;;;;;;;;;6265503;22;20905;-71
2022/12/22 14:28:49;;;;;;;11.60;3.40;;;;;;;;;;6264563;22;20135;-71
2022/12/22 14:31:17;;;;;;;14.10;3.07;;;;;;;;;;6271341;22;20352;-71
2022/12/22 14:33:50;;;;;;;10.77;3.40;;;;;;;;;;6268939;22;20502;-71
2022/12/22 14:36:22;;;;;;;13.20;3.20;;;;;;;;;;6271221;22;20361;-72
2022/12/22 14:38:49;;;;;;;7.47;2.93;;;;;;;;;;6242235;22;20371;-72
2022/12/22 14:41:40;;;;;;;11.23;2.70;;;;;;;;;;6243421;22;20434;-70
2022/12/22 14:44:02;;;;;;;12.47;3.00;;;;;;;;;;6269544;22;20409;-70
2022/12/22 14:46:28;;;;;;;14.53;2.80;;;;;;;;;;6269374;22;20748;-71
2022/12/22 14:48:53;;;;;;;7.53;3.00;;;;;;;;;;6242242;22;20180;-72
2022/12/22 14:51:19;;;;;;;11.93;3.27;;;;;;;;;;6270563;22;20487;-72
2022/12/22 14:53:46;;;;;;;6.30;2.80;;;;;;;;;;6266339;22;20269;-71
2022/12/22 14:56:12;;;;;;;7.90;2.43;;;;;;;;;;6241950;22;20157;-71
2022/12/22 14:58:39;;;;;;;9.20;2.97;;;;;;;;;;6269949;22;20449;-71
2022/12/22 15:01:13;;;;;;;14.30;3.80;;;;;;;;;;6268220;22;20369;-70
2022/12/22 15:03:39;;;;;;;10.00;3.30;;;;;;;;;;6241775;22;20855;-71
2022/12/22 15:06:39;;;;;;;9.83;2.83;;;;;;;;;;6265306;22;20415;-71
2022/12/22 15:09:10;;;;;;;10.93;3.20;;;;;;;;;;6260816;22;20708;-76
2022/12/22 15:11:37;;;;;;;7.90;2.43;;;;;;;;;;6244871;22;20369;-76
2022/12/22 15:14:08;;;;;;;12.75;3.40;;;;;;;;;;6271090;22;20358;-77
2022/12/22 15:16:36;;;;;;;8.13;2.57;;;;;;;;;;6245985;22;20142;-77
2022/12/22 15:19:03;;;;;;;11.43;3.70;;;;;;;;;;6245531;22;20397;-79
2022/12/22 15:21:28;;;;;;;10.63;3.00;;;;;;;;;;6271968;22;20812;-76
2022/12/22 15:23:54;;;;;;;9.70;2.90;;;;;;;;;;6273255;22;20424;-77
2022/12/22 15:26:19;;;;;;;14.07;3.23;;;;;;;;;;6245493;22;20181;-77
2022/12/22 15:28:48;;;;;;;12.03;2.87;;;;;;;;;;6274456;22;20170;-77
2022/12/22 15:31:14;;;;;;;9.93;3.03;;;;;;;;;;6275064;22;20529;-77
2022/12/22 15:33:40;;;;;;;12.57;2.80;;;;;;;;;;6274978;22;20407;-77
2022/12/22 15:36:08;;;;;;;9.53;2.80;;;;;;;;;;6274924;22;20373;-77
2022/12/22 15:38:33;;;;;;;11.87;3.60;;;;;;;;;;6274535;22;20537;-77
2022/12/22 15:40:59;;;;;;;7.90;2.90;;;;;;;;;;6249018;22;20452;-77
2022/12/22 15:43:24;;;;;;;9.13;3.37;;;;;;;;;;6247354;22;20499;-77
2022/12/22 15:45:49;;;;;;;7.87;3.30;;;;;;;;;;6273796;22;20213;-78
2022/12/22 15:48:22;;;;;;;12.77;3.53;;;;;;;;;;6248249;22;20146;-77
2022/12/22 15:50:50;;;;;;;10.60;4.10;;;;;;;;;;6248241;22;20229;-76
2022/12/22 15:53:17;;;;;;;10.20;2.90;;;;;;;;;;6247437;22;20412;-78
2022/12/22 15:55:43;;;;;;;7.63;2.40;;;;;;;;;;6274831;22;20858;-77
2022/12/22 15:58:14;;;;;;;8.93;2.53;;;;;;;;;;6247859;22;20362;-79
2022/12/22 16:00:39;;;;;;;7.37;3.13;;;;;;;;;;6247584;22;20373;-78
2022/12/22 16:03:05;;;;;;;6.83;2.70;;;;;;;;;;6273877;22;20357;-76
2022/12/22 16:05:31;;;;;;;8.80;2.80;;;;;;;;;;6273433;22;20157;-77
2022/12/22 16:07:56;;;;;;;8.43;2.93;;;;;;;;;;6246574;22;20499;-78
2022/12/22 16:10:29;;;;;;;15.00;3.17;;;;;;;;;;6274653;22;20464;-78
2022/12/22 16:12:59;;;;;;;7.80;2.60;;;;;;;;;;6274436;22;20245;-77
2022/12/22 16:15:29;;;;;;;9.70;3.13;;;;;;;;;;6246090;22;20401;-77
2022/12/22 16:17:57;;;;;;;11.47;2.80;;;;;;;;;;6274143;22;20419;-77
2022/12/22 16:20:23;;;;;;;8.17;2.83;;;;;;;;;;6246548;22;20424;-77
2022/12/22 16:22:50;;;;;;;8.80;2.73;;;;;;;;;;6246884;22;20374;-79
2022/12/22 16:25:18;;;;;;;9.93;2.67;;;;;;;;;;6274834;22;20369;-78
2022/12/22 16:27:46;;;;;;;20.40;3.70;;;;;;;;;;6273447;22;20419;-77
2022/12/22 16:30:21;;;;;;;5.93;2.87;;;;;;;;;;6247335;22;20752;-78
2022/12/22 16:32:47;;;;;;;10.40;3.30;;;;;;;;;;6248355;22;20408;-77
2022/12/22 16:35:17;;;;;;;9.93;3.40;;;;;;;;;;6247205;22;20439;-78
2022/12/22 16:37:47;;;;;;;7.37;3.37;;;;;;;;;;6246853;22;20607;-77
2022/12/22 16:40:16;;;;;;;7.03;2.50;;;;;;;;;;6273884;22;20423;-78
2022/12/22 16:42:44;;;;;;;6.07;2.80;;;;;;;;;;6246038;22;20385;-81
2022/12/22 16:45:21;;;;;;;8.93;3.10;;;;;;;;;;6266214;22;20423;-77
2022/12/22 16:47:48;;;;;;;8.43;3.60;;;;;;;;;;6245391;22;20460;-80
2022/12/22 16:50:19;;;;;;;7.87;2.87;;;;;;;;;;6244799;22;20389;-76
2022/12/22 16:52:50;;;;;;;4.27;2.93;;;;;;;;;;6269715;22;20405;-76
2022/12/22 16:55:21;;;;;;;7.93;2.97;;;;;;;;;;6243020;22;20706;-76
2022/12/22 16:57:49;;;;;;;7.33;3.30;;;;;;;;;;6245438;22;20374;-79
2022/12/22 17:00:34;;;;;;;6.83;3.70;;;;;;;;;;6280152;22;20378;-76
2022/12/22 17:03:14;;;;;;;6.33;3.07;;;;;;;;;;6245106;22;20396;-80
2022/12/22 17:05:41;;;;;;;15.10;3.70;;;;;;;;;;6274800;22;20682;-78
2022/12/22 17:08:15;;;;;;;15.57;4.43;;;;;;;;;;6275894;22;20460;-78
2022/12/22 17:10:49;;;;;;;8.97;5.13;;;;;;;;;;6273098;22;20357;-79
2022/12/22 17:13:15;;;;;;;10.70;4.20;;;;;;;;;;6270237;22;20400;-77
2022/12/22 17:15:43;;;;;;;8.47;4.37;;;;;;;;;;6246795;22;20388;-78
2022/12/22 17:18:20;;;;;;;9.07;3.73;;;;;;;;;;6242961;22;20373;-77
2022/12/22 17:20:52;;;;;;;12.50;4.40;;;;;;;;;;6244622;22;20892;-76
2022/12/22 17:23:25;;;;;;;8.00;3.67;;;;;;;;;;6267382;22;20349;-76
2022/12/22 17:25:53;;;;;;;10.03;4.13;;;;;;;;;;6243117;22;20397;-75
2022/12/22 17:28:20;;;;;;;9.60;4.03;;;;;;;;;;6269620;22;20381;-77
2022/12/22 17:30:49;;;;;;;10.00;3.80;;;;;;;;;;6271067;22;20763;-75
2022/12/22 17:33:19;;;;;;;10.57;4.70;;;;;;;;;;6241375;22;20416;-76
2022/12/22 17:35:49;;;;;;;10.50;4.90;;;;;;;;;;6242244;22;20397;-75
2022/12/22 17:38:16;;;;;;;12.53;5.27;;;;;;;;;;6242494;22;20484;-80
2022/12/22 17:40:46;;;;;;;9.23;4.70;;;;;;;;;;6243950;22;20444;-78
2022/12/22 17:43:18;;;;;;;20.30;5.33;;;;;;;;;;6243158;22;20945;-78
2022/12/22 17:45:50;;;;;;;8.87;5.70;;;;;;;;;;6244680;22;20377;-77
2022/12/22 18:01:07;;;;;;;11.70;7.13;;;;;;;;;;6247189;22;20458;-77
2022/12/22 18:03:34;;;;;;;11.17;6.93;;;;;;;;;;6286268;22;20376;-78
2022/12/22 18:06:01;;;;;;;12.67;8.43;;;;;;;;;;6301554;22;20357;-79
2022/12/22 18:08:28;;;;;;;11.57;7.40;;;;;;;;;;6295636;22;20373;-79
2022/12/22 18:11:00;;;;;;;12.50;8.07;;;;;;;;;;6294471;22;20350;-79
2022/12/22 18:13:29;;;;;;;11.90;8.23;;;;;;;;;;6252923;22;20417;-78
2022/12/22 18:15:56;;;;;;;12.93;8.00;;;;;;;;;;6253427;22;20381;-79
2022/12/22 18:18:29;;;;;;;15.50;9.93;;;;;;;;;;6279202;22;20392;-79
2022/12/22 18:23:58;;;;;;;17.47;9.20;;;;;;;;;;6277157;22;20376;-77
2022/12/22 18:26:25;;;;;;;13.63;10.27;;;;;;;;;;6272424;22;20365;-76
2022/12/22 18:28:56;;;;;;;19.13;10.80;;;;;;;;;;6246224;22;20193;-76